Southern Illinois Airport Carbondale,Murphysboro US
ICAO: KMDH
IATA: MDH
Category: Medium
Scheduled Services: No

Elevation: 411 ft
TransAlt. 18000 ft.

Airport Communications:
ATIS:119.85
KANSAS CITY CNTR:125.3
CTAF:125.35
GND:121.8
CARBONDALE TWR:125.35
UNICOM:122.95

KMDH Zoom In..

Runways:

(A) RW 06 length 4163 ft width 100 ft
---- / hdg 62

(B) RW 18L length 6506 ft width 100 ft
ILS 110.90 / hdg 182

(C) RW 18R length 3498 ft width 60 ft
---- / hdg 182

(D) RW 24 length 4163 ft width 100 ft
---- / hdg 242

(E) RW 36L length 3498 ft width 60 ft
---- / hdg 2

(F) RW 36R length 6506 ft width 100 ft
---- / hdg 2

Location; KMDH
Day. 22 / Time. 23.52 Zulu
* Altimeter: 29.61
* Temperature: 11° c. 51.8°f.
* Wind from: 200° Speed 17 kn with Gusts up to 29 kn.
Dewpoint: -01° c.
Visibility: 10 Statute Miles.
Clouds: Broken 8000 ft.

KMDH 222352Z 20017G29KT 10SM BKN080 11/M01 A2961 RMK AO2 PK WND 21033/2254 SLP027 T01061006 10150 20106 53027


Wind From 200°
Speed 17 kn.

YouTube Music Video
 
jpsmedia.com for Web Design  worldairports.se 2018   terms of use